Nomad — 9HA2354 — position and weather

sailwx.info

Track history (hours):
 
Tides and Currents Weather Stations Pressure Air Temp Water Temp Dewpoint Dewpoint Depression Visibility Wind Speed Wind Dir Waves Ship Positions

Nomad

Last reported at 2017-Aug-12 15:31 UTC. Time now 2017-Aug-17 09:52 UTC.
Position N 40°15' E 025°56'.

Length 70 m; draft 3 m.

Type: Other ship. MMSI: 248413000.

Date/timePositionNaut miles runAvg speedWind from/ knotsBaromVisibWave heightAir tempDewpointWater temp
2017-Aug-12 15:31N 40°15' E 025°56'012.9
2017-Aug-12 15:30N 40°15' E 025°55'26 2.3
2017-Aug-12 04:27N 39°50' E 026°05'  
2017-Aug-10 00:10N 37°31' E 025°55'211.2
2017-Aug-10 00:00N 37°31' E 025°53'811.5
2017-Aug-09 23:17N 37°35' E 025°44'511.7
2017-Aug-09 22:54N 37°37' E 025°39'3 6.9
2017-Aug-09 22:30N 37°37' E 025°35'4 8.3
2017-Aug-09 22:00N 37°33' E 025°34'4 8.7
2017-Aug-09 21:30N 37°29' E 025°32'5 9.3
2017-Aug-09 21:00N 37°25' E 025°28'611.8
2017-Aug-09 20:30N 37°24' E 025°21'1 2.7
2017-Aug-09 20:01N 37°25' E 025°19'0 0.0
2017-Aug-09 19:31N 37°25' E 025°19'0 0.4
2017-Aug-09 19:00N 37°24' E 025°19'0 0.4
2017-Aug-09 18:28N 37°25' E 025°19'0 0.1
2017-Aug-09 17:58N 37°25' E 025°19'0 0.1
2017-Aug-09 17:28N 37°25' E 025°20'0 0.0
2017-Aug-09 16:58N 37°25' E 025°19'0 0.1
2017-Aug-09 16:28N 37°25' E 025°19'0 0.0
2017-Aug-09 15:58N 37°25' E 025°19'0 0.1
2017-Aug-09 15:28N 37°25' E 025°20'0 0.1
2017-Aug-09 14:58N 37°25' E 025°19'0 0.0
2017-Aug-09 14:25N 37°25' E 025°19'0 0.0
2017-Aug-09 13:55N 37°25' E 025°19'0 0.1
2017-Aug-09 13:28N 37°25' E 025°19'0 0.1
2017-Aug-09 12:58N 37°25' E 025°19'0 0.0
2017-Aug-09 12:25N 37°25' E 025°19'0 0.1
2017-Aug-09 11:58N 37°25' E 025°19'0 0.1
2017-Aug-09 11:28N 37°25' E 025°19'0 0.2
2017-Aug-09 10:58N 37°25' E 025°19'0 0.2
2017-Aug-09 10:28N 37°25' E 025°19'0 0.1
2017-Aug-09 09:58N 37°25' E 025°19'0 0.0
2017-Aug-09 09:31N 37°25' E 025°19'3 5.1
2017-Aug-09 09:00N 37°22' E 025°18'4 9.0
2017-Aug-09 08:31N 37°23' E 025°12'1 2.4
2017-Aug-09 07:57N 37°24' E 025°13'0 0.0
2017-Aug-09 07:21N 37°24' E 025°13'0 0.1
2017-Aug-09 07:00N 37°24' E 025°13'2 3.7
2017-Aug-09 06:31N 37°22' E 025°12'510.3
2017-Aug-09 06:00N 37°23' E 025°19'2 3.0
2017-Aug-09 05:28N 37°25' E 025°19'0 0.0
2017-Aug-09 04:55N 37°25' E 025°19'0 0.2
2017-Aug-09 04:28N 37°25' E 025°19'0 0.0
2017-Aug-09 03:58N 37°25' E 025°19'0 0.0
2017-Aug-09 03:25N 37°25' E 025°19'0 0.1
2017-Aug-09 02:58N 37°25' E 025°19'0 0.0
2017-Aug-09 02:28N 37°25' E 025°19'0 0.1
2017-Aug-09 01:58N 37°25' E 025°19'0 0.1
2017-Aug-09 01:28N 37°25' E 025°19'0 0.1
2017-Aug-09 00:58N 37°25' E 025°19'0 0.1
2017-Aug-09 00:28N 37°25' E 025°19'0 0.0
2017-Aug-08 23:58N 37°25' E 025°19'0 0.1
2017-Aug-08 23:25N 37°25' E 025°19'0 0.1
2017-Aug-08 22:58N 37°25' E 025°19'0 0.0
2017-Aug-08 22:28N 37°25' E 025°19'0 0.0
2017-Aug-08 21:58N 37°25' E 025°19'0 0.0
2017-Aug-08 21:28N 37°25' E 025°19'0 0.0
2017-Aug-08 20:58N 37°25' E 025°19'0 0.0
2017-Aug-08 20:28N 37°25' E 025°19'0 0.1
2017-Aug-08 19:58N 37°25' E 025°19'0 0.0
2017-Aug-08 19:28N 37°25' E 025°19'0 0.1
2017-Aug-08 18:55N 37°25' E 025°19'0 0.1
2017-Aug-08 18:28N 37°25' E 025°19'0 0.2
2017-Aug-08 17:58N 37°25' E 025°19'0 0.1
2017-Aug-08 17:25N 37°25' E 025°19'0 0.1
2017-Aug-08 16:58N 37°25' E 025°19'0 0.2
2017-Aug-08 16:28N 37°25' E 025°19'0 0.1
2017-Aug-08 15:58N 37°25' E 025°19'0 0.1
2017-Aug-08 15:25N 37°25' E 025°19'0 0.0
2017-Aug-08 14:58N 37°25' E 025°19'0 0.1
2017-Aug-08 14:28N 37°25' E 025°19'0 0.1
2017-Aug-08 13:58N 37°25' E 025°19'0 0.0
2017-Aug-08 13:31N 37°25' E 025°19'1 1.3
2017-Aug-08 13:01N 37°24' E 025°19'510.4
2017-Aug-08 12:30N 37°22' E 025°13'2 4.4
2017-Aug-08 12:01N 37°24' E 025°13'0 0.1
2017-Aug-08 11:29N 37°24' E 025°13'0 0.0
2017-Aug-08 11:00N 37°24' E 025°13'0 0.0
2017-Aug-08 10:29N 37°24' E 025°13'0 0.0
2017-Aug-08 10:01N 37°24' E 025°13'0 0.0
2017-Aug-08 09:30N 37°24' E 025°13'0 0.1
2017-Aug-08 09:00N 37°24' E 025°13'0 0.1
2017-Aug-08 08:30N 37°24' E 025°13'3 5.7
2017-Aug-08 08:00N 37°22' E 025°10'7 9.8
2017-Aug-08 07:17N 37°21' E 025°02'310.1
2017-Aug-08 07:00N 37°21' E 024°58'510.0
2017-Aug-08 06:31N 37°22' E 024°52'2 2.6
2017-Aug-08 05:55N 37°24' E 024°53'0 0.0
2017-Aug-08 05:28N 37°24' E 024°53'0 0.0
2017-Aug-08 04:46N 37°24' E 024°53'0 0.0
2017-Aug-08 03:28N 37°24' E 024°53'0 0.0
2017-Aug-07 21:37N 37°24' E 024°53'0 0.0
2017-Aug-07 20:46N 37°24' E 024°53'0 0.0
2017-Aug-07 20:25N 37°24' E 024°53'0 0.0
2017-Aug-07 19:55N 37°24' E 024°53'0 0.1
2017-Aug-07 19:25N 37°24' E 024°53'0 0.0
2017-Aug-07 18:28N 37°24' E 024°53'0 1.1
2017-Aug-07 18:01N 37°23' E 024°52'4 8.8
2017-Aug-07 17:31N 37°21' E 024°57'713.4
2017-Aug-07 17:00N 37°21' E 025°06'612.8
2017-Aug-07 16:31N 37°21' E 025°13'611.4
2017-Aug-07 16:01N 37°25' E 025°19'0 0.2
2017-Aug-07 15:29N 37°25' E 025°19'0 0.1
2017-Aug-07 14:56N 37°25' E 025°19'0 0.0
2017-Aug-07 14:26N 37°25' E 025°19'3 6.0
2017-Aug-07 14:01N 37°22' E 025°18'3 5.4
2017-Aug-07 13:29N 37°23' E 025°14'0 0.0
2017-Aug-07 12:57N 37°23' E 025°14'0 0.0
2017-Aug-07 12:30N 37°23' E 025°14'0 0.0
2017-Aug-07 12:00N 37°23' E 025°14'0 0.0
2017-Aug-07 11:29N 37°23' E 025°14'0 0.1
2017-Aug-07 10:57N 37°23' E 025°14'0 0.0
2017-Aug-07 10:29N 37°23' E 025°14'0 0.1
2017-Aug-07 09:59N 37°23' E 025°14'0 0.1
2017-Aug-07 09:30N 37°23' E 025°14'0 0.0
2017-Aug-07 09:00N 37°23' E 025°14'0 0.0
2017-Aug-07 08:30N 37°23' E 025°14'3 6.6
2017-Aug-07 08:00N 37°23' E 025°18'2 3.5
2017-Aug-07 07:29N 37°25' E 025°19'0 0.0
2017-Aug-07 06:59N 37°25' E 025°19'0 0.0
2017-Aug-07 06:29N 37°25' E 025°19'0 0.0
2017-Aug-07 05:59N 37°25' E 025°19'0 0.0
2017-Aug-07 05:29N 37°25' E 025°19'0 0.0
2017-Aug-07 04:59N 37°25' E 025°19'0 0.0
2017-Aug-07 04:29N 37°25' E 025°19'0 0.1
2017-Aug-07 03:59N 37°25' E 025°19'0 0.0
2017-Aug-07 03:29N 37°25' E 025°19'0 0.0
2017-Aug-07 02:59N 37°25' E 025°19'0 0.0
2017-Aug-07 02:26N 37°25' E 025°19'0 0.0
2017-Aug-07 01:59N 37°25' E 025°19'0 0.0
2017-Aug-07 01:29N 37°25' E 025°19'0 0.0
2017-Aug-07 00:59N 37°25' E 025°19'0 0.0
2017-Aug-07 00:29N 37°25' E 025°19'0 0.0
2017-Aug-06 23:59N 37°25' E 025°19'0 0.0
2017-Aug-06 23:29N 37°25' E 025°19'0 0.0
2017-Aug-06 22:59N 37°25' E 025°19'0 0.1
2017-Aug-06 22:29N 37°25' E 025°19'0 0.0
2017-Aug-06 21:59N 37°25' E 025°19'0 0.0
2017-Aug-06 21:29N 37°25' E 025°19'0 0.0
2017-Aug-06 20:59N 37°25' E 025°19'0 0.0
2017-Aug-06 20:29N 37°25' E 025°19'0 0.0
2017-Aug-06 19:59N 37°25' E 025°19'0 0.1
2017-Aug-06 19:31N 37°25' E 025°19'4 8.1
2017-Aug-06 19:01N 37°22' E 025°16'612.4
2017-Aug-06 18:30N 37°22' E 025°08'612.2
2017-Aug-06 18:00N 37°21' E 025°00'612.2
2017-Aug-06 17:30N 37°21' E 024°53'612.5
2017-Aug-06 17:00N 37°24' E 024°46'4811.3
2017-Aug-06 12:49N 37°41' E 023°50'412.3
2017-Aug-06 12:30N 37°44' E 023°46'612.7
2017-Aug-06 12:00N 37°49' E 023°42'612.8
2017-Aug-06 11:30N 37°55' E 023°40'1 1.7
2017-Aug-06 10:59N 37°56' E 023°39'0 0.0
2017-Aug-06 10:29N 37°56' E 023°39'0 0.0
2017-Aug-06 09:56N 37°56' E 023°39'0 0.0
2017-Aug-06 09:29N 37°56' E 023°39'0 0.0
2017-Aug-06 08:59N 37°56' E 023°39'0 0.0
2017-Aug-06 08:29N 37°56' E 023°39'0 0.0
2017-Aug-06 07:59N 37°56' E 023°39'0 0.0
2017-Aug-06 07:29N 37°56' E 023°39'0 0.0
2017-Aug-06 06:59N 37°56' E 023°39'0 0.0
2017-Aug-06 06:29N 37°56' E 023°39'0 0.0
2017-Aug-06 05:59N 37°56' E 023°39'0 0.0
2017-Aug-06 05:29N 37°56' E 023°39'0 0.0
2017-Aug-06 04:56N 37°56' E 023°39'0 0.0
2017-Aug-06 04:29N 37°56' E 023°39'0 0.0
2017-Aug-06 03:59N 37°56' E 023°39'0 0.0
2017-Aug-06 03:29N 37°56' E 023°39'0 0.0
2017-Aug-06 02:59N 37°56' E 023°39'0 0.0
2017-Aug-06 02:29N 37°56' E 023°39'0 0.0
2017-Aug-06 01:59N 37°56' E 023°39'0 0.0
2017-Aug-06 01:29N 37°56' E 023°39'0 0.0
2017-Aug-06 00:59N 37°56' E 023°39'0 0.0
2017-Aug-06 00:29N 37°56' E 023°39'0 0.0
2017-Aug-05 23:59N 37°56' E 023°39'0 0.0
2017-Aug-05 23:29N 37°56' E 023°39'0 0.0
2017-Aug-05 22:59N 37°56' E 023°39'0 0.0
2017-Aug-05 22:29N 37°56' E 023°39'0 0.0
2017-Aug-05 21:59N 37°56' E 023°39'0 0.0
2017-Aug-05 21:29N 37°56' E 023°39'0 0.0
2017-Aug-05 20:59N 37°56' E 023°39'0 0.0
2017-Aug-05 20:29N 37°56' E 023°39'0 0.0
2017-Aug-05 19:59N 37°56' E 023°39'0 0.0
2017-Aug-05 19:29N 37°56' E 023°39'0 0.0
2017-Aug-05 19:00N 37°56' E 023°39'1 1.5
2017-Aug-05 18:30N 37°55' E 023°40'611.8
2017-Aug-05 18:00N 37°50' E 023°42'4 8.1
2017-Aug-05 17:30N 37°48' E 023°47'0 0.1
2017-Aug-05 17:00N 37°48' E 023°47'0 0.0
2017-Aug-05 16:30N 37°48' E 023°47'0 0.0
2017-Aug-05 16:00N 37°48' E 023°47'0 0.0
2017-Aug-05 15:30N 37°48' E 023°47'0 0.1
2017-Aug-05 14:59N 37°48' E 023°47'0 0.1
2017-Aug-05 14:30N 37°48' E 023°47'0 0.1
2017-Aug-05 14:00N 37°48' E 023°47'0 0.1
2017-Aug-05 13:30N 37°48' E 023°47'0 0.0
2017-Aug-05 13:00N 37°48' E 023°47'0 0.0
2017-Aug-05 12:30N 37°48' E 023°47'0 0.1
2017-Aug-05 12:00N 37°48' E 023°47'0 0.1
2017-Aug-05 11:30N 37°48' E 023°47'3 6.5
2017-Aug-05 11:00N 37°49' E 023°43'611.8
2017-Aug-05 10:30N 37°54' E 023°40'2 3.1
2017-Aug-05 09:58N 37°56' E 023°39'0 0.0
2017-Aug-05 09:28N 37°56' E 023°39'0 0.0
2017-Aug-05 08:58N 37°56' E 023°39'0 0.0
2017-Aug-05 08:28N 37°56' E 023°39'0 0.0
2017-Aug-05 07:58N 37°56' E 023°39'0 0.0
2017-Aug-05 07:28N 37°56' E 023°39'0 0.0
2017-Aug-05 06:58N 37°56' E 023°39'0 0.0
2017-Aug-05 06:28N 37°56' E 023°39'0 0.0
2017-Aug-05 05:55N 37°56' E 023°39'0 0.0
2017-Aug-05 05:28N 37°56' E 023°39'0 0.0
2017-Aug-05 04:58N 37°56' E 023°39'0 0.0
2017-Aug-05 04:28N 37°56' E 023°39'0 0.0
2017-Aug-05 03:58N 37°56' E 023°39'0 0.0
2017-Aug-05 03:28N 37°56' E 023°39'0 0.0
2017-Aug-05 02:58N 37°56' E 023°39'0 0.0
2017-Aug-05 02:28N 37°56' E 023°39'0 0.0
2017-Aug-05 01:58N 37°56' E 023°39'0 0.0
2017-Aug-05 01:28N 37°56' E 023°39'0 0.0
2017-Aug-05 00:58N 37°56' E 023°39'0 0.0
2017-Aug-05 00:28N 37°56' E 023°39'0 0.0
2017-Aug-04 23:58N 37°56' E 023°39'0 0.0
2017-Aug-04 23:28N 37°56' E 023°39'0 0.0
2017-Aug-04 22:58N 37°56' E 023°39'0 0.0
2017-Aug-04 22:28N 37°56' E 023°39'0 0.0
2017-Aug-04 21:58N 37°56' E 023°39'0 0.0
2017-Aug-04 21:28N 37°56' E 023°39'0 0.0
2017-Aug-04 20:58N 37°56' E 023°39'0 0.0
2017-Aug-04 20:28N 37°56' E 023°39'0 0.0
2017-Aug-04 19:58N 37°56' E 023°39'0 0.0
2017-Aug-04 19:28N 37°56' E 023°39'0 0.0
2017-Aug-04 18:58N 37°56' E 023°39'0 0.0
2017-Aug-04 18:28N 37°56' E 023°39'0 0.0
2017-Aug-04 17:58N 37°56' E 023°39'0 0.0
2017-Aug-04 17:28N 37°56' E 023°39'0 0.0
2017-Aug-04 16:58N 37°56' E 023°39'0 0.0
2017-Aug-04 16:28N 37°56' E 023°39'0 0.0
2017-Aug-04 15:58N 37°56' E 023°39'0 0.0
2017-Aug-04 15:28N 37°56' E 023°39'0 0.0
2017-Aug-04 14:58N 37°56' E 023°39'0 0.0
2017-Aug-04 13:58N 37°56' E 023°39'0 0.0
2017-Aug-04 13:28N 37°56' E 023°39'0 0.0
2017-Aug-04 12:58N 37°56' E 023°39'0 0.0
2017-Aug-04 12:28N 37°56' E 023°39'0 0.0
2017-Aug-04 11:58N 37°56' E 023°39'2 4.3
2017-Aug-04 11:30N 37°54' E 023°40'612.7
2017-Aug-04 11:00N 37°48' E 023°43'612.6
2017-Aug-04 10:30N 37°43' E 023°47'  
Track history (hours):
 
Tides and Currents Weather Stations Pressure Air Temp Water Temp Dewpoint Dewpoint Depression Visibility Wind Speed Wind Dir Waves Ship Positions

Nomad

Last reported at 2017-Aug-12 15:31 UTC. Time now 2017-Aug-17 09:52 UTC.
Position N 40°15' E 025°56'.

Length 70 m; draft 3 m.

Type: Other ship. MMSI: 248413000.

Date/timePositionNaut miles runAvg speedWind from/ knotsBaromVisibWave heightAir tempDewpointWater temp
2017-Aug-12 15:31N 40°15' E 025°56'012.9
2017-Aug-12 15:30N 40°15' E 025°55'26 2.3
2017-Aug-12 04:27N 39°50' E 026°05'  
2017-Aug-10 00:10N 37°31' E 025°55'211.2
2017-Aug-10 00:00N 37°31' E 025°53'811.5
2017-Aug-09 23:17N 37°35' E 025°44'511.7
2017-Aug-09 22:54N 37°37' E 025°39'3 6.9
2017-Aug-09 22:30N 37°37' E 025°35'4 8.3
2017-Aug-09 22:00N 37°33' E 025°34'4 8.7
2017-Aug-09 21:30N 37°29' E 025°32'5 9.3
2017-Aug-09 21:00N 37°25' E 025°28'611.8
2017-Aug-09 20:30N 37°24' E 025°21'1 2.7
2017-Aug-09 20:01N 37°25' E 025°19'0 0.0
2017-Aug-09 19:31N 37°25' E 025°19'0 0.4
2017-Aug-09 19:00N 37°24' E 025°19'0 0.4
2017-Aug-09 18:28N 37°25' E 025°19'0 0.1
2017-Aug-09 17:58N 37°25' E 025°19'0 0.1
2017-Aug-09 17:28N 37°25' E 025°20'0 0.0
2017-Aug-09 16:58N 37°25' E 025°19'0 0.1
2017-Aug-09 16:28N 37°25' E 025°19'0 0.0
2017-Aug-09 15:58N 37°25' E 025°19'0 0.1
2017-Aug-09 15:28N 37°25' E 025°20'0 0.1
2017-Aug-09 14:58N 37°25' E 025°19'0 0.0
2017-Aug-09 14:25N 37°25' E 025°19'0 0.0
2017-Aug-09 13:55N 37°25' E 025°19'0 0.1
2017-Aug-09 13:28N 37°25' E 025°19'0 0.1
2017-Aug-09 12:58N 37°25' E 025°19'0 0.0
2017-Aug-09 12:25N 37°25' E 025°19'0 0.1
2017-Aug-09 11:58N 37°25' E 025°19'0 0.1
2017-Aug-09 11:28N 37°25' E 025°19'0 0.2
2017-Aug-09 10:58N 37°25' E 025°19'0 0.2
2017-Aug-09 10:28N 37°25' E 025°19'0 0.1
2017-Aug-09 09:58N 37°25' E 025°19'0 0.0
2017-Aug-09 09:31N 37°25' E 025°19'3 5.1
2017-Aug-09 09:00N 37°22' E 025°18'4 9.0
2017-Aug-09 08:31N 37°23' E 025°12'1 2.4
2017-Aug-09 07:57N 37°24' E 025°13'0 0.0
2017-Aug-09 07:21N 37°24' E 025°13'0 0.1
2017-Aug-09 07:00N 37°24' E 025°13'2 3.7
2017-Aug-09 06:31N 37°22' E 025°12'510.3
2017-Aug-09 06:00N 37°23' E 025°19'2 3.0
2017-Aug-09 05:28N 37°25' E 025°19'0 0.0
2017-Aug-09 04:55N 37°25' E 025°19'0 0.2
2017-Aug-09 04:28N 37°25' E 025°19'0 0.0
2017-Aug-09 03:58N 37°25' E 025°19'0 0.0
2017-Aug-09 03:25N 37°25' E 025°19'0 0.1
2017-Aug-09 02:58N 37°25' E 025°19'0 0.0
2017-Aug-09 02:28N 37°25' E 025°19'0 0.1
2017-Aug-09 01:58N 37°25' E 025°19'0 0.1
2017-Aug-09 01:28N 37°25' E 025°19'0 0.1
2017-Aug-09 00:58N 37°25' E 025°19'0 0.1
2017-Aug-09 00:28N 37°25' E 025°19'0 0.0
2017-Aug-08 23:58N 37°25' E 025°19'0 0.1
2017-Aug-08 23:25N 37°25' E 025°19'0 0.1
2017-Aug-08 22:58N 37°25' E 025°19'0 0.0
2017-Aug-08 22:28N 37°25' E 025°19'0 0.0
2017-Aug-08 21:58N 37°25' E 025°19'0 0.0
2017-Aug-08 21:28N 37°25' E 025°19'0 0.0
2017-Aug-08 20:58N 37°25' E 025°19'0 0.0
2017-Aug-08 20:28N 37°25' E 025°19'0 0.1
2017-Aug-08 19:58N 37°25' E 025°19'0 0.0
2017-Aug-08 19:28N 37°25' E 025°19'0 0.1
2017-Aug-08 18:55N 37°25' E 025°19'0 0.1
2017-Aug-08 18:28N 37°25' E 025°19'0 0.2
2017-Aug-08 17:58N 37°25' E 025°19'0 0.1
2017-Aug-08 17:25N 37°25' E 025°19'0 0.1
2017-Aug-08 16:58N 37°25' E 025°19'0 0.2
2017-Aug-08 16:28N 37°25' E 025°19'0 0.1
2017-Aug-08 15:58N 37°25' E 025°19'0 0.1
2017-Aug-08 15:25N 37°25' E 025°19'0 0.0
2017-Aug-08 14:58N 37°25' E 025°19'0 0.1
2017-Aug-08 14:28N 37°25' E 025°19'0 0.1
2017-Aug-08 13:58N 37°25' E 025°19'0 0.0
2017-Aug-08 13:31N 37°25' E 025°19'1 1.3
2017-Aug-08 13:01N 37°24' E 025°19'510.4
2017-Aug-08 12:30N 37°22' E 025°13'2 4.4
2017-Aug-08 12:01N 37°24' E 025°13'0 0.1
2017-Aug-08 11:29N 37°24' E 025°13'0 0.0
2017-Aug-08 11:00N 37°24' E 025°13'0 0.0
2017-Aug-08 10:29N 37°24' E 025°13'0 0.0
2017-Aug-08 10:01N 37°24' E 025°13'0 0.0
2017-Aug-08 09:30N 37°24' E 025°13'0 0.1
2017-Aug-08 09:00N 37°24' E 025°13'0 0.1
2017-Aug-08 08:30N 37°24' E 025°13'3 5.7
2017-Aug-08 08:00N 37°22' E 025°10'7 9.8
2017-Aug-08 07:17N 37°21' E 025°02'310.1
2017-Aug-08 07:00N 37°21' E 024°58'510.0
2017-Aug-08 06:31N 37°22' E 024°52'2 2.6
2017-Aug-08 05:55N 37°24' E 024°53'0 0.0
2017-Aug-08 05:28N 37°24' E 024°53'0 0.0
2017-Aug-08 04:46N 37°24' E 024°53'0 0.0
2017-Aug-08 03:28N 37°24' E 024°53'0 0.0
2017-Aug-07 21:37N 37°24' E 024°53'0 0.0
2017-Aug-07 20:46N 37°24' E 024°53'0 0.0
2017-Aug-07 20:25N 37°24' E 024°53'0 0.0
2017-Aug-07 19:55N 37°24' E 024°53'0 0.1
2017-Aug-07 19:25N 37°24' E 024°53'0 0.0
2017-Aug-07 18:28N 37°24' E 024°53'0 1.1
2017-Aug-07 18:01N 37°23' E 024°52'4 8.8
2017-Aug-07 17:31N 37°21' E 024°57'713.4
2017-Aug-07 17:00N 37°21' E 025°06'612.8
2017-Aug-07 16:31N 37°21' E 025°13'611.4
2017-Aug-07 16:01N 37°25' E 025°19'0 0.2
2017-Aug-07 15:29N 37°25' E 025°19'0 0.1
2017-Aug-07 14:56N 37°25' E 025°19'0 0.0
2017-Aug-07 14:26N 37°25' E 025°19'3 6.0
2017-Aug-07 14:01N 37°22' E 025°18'3 5.4
2017-Aug-07 13:29N 37°23' E 025°14'0 0.0
2017-Aug-07 12:57N 37°23' E 025°14'0 0.0
2017-Aug-07 12:30N 37°23' E 025°14'0 0.0
2017-Aug-07 12:00N 37°23' E 025°14'0 0.0
2017-Aug-07 11:29N 37°23' E 025°14'0 0.1
2017-Aug-07 10:57N 37°23' E 025°14'0 0.0
2017-Aug-07 10:29N 37°23' E 025°14'0 0.1
2017-Aug-07 09:59N 37°23' E 025°14'0 0.1
2017-Aug-07 09:30N 37°23' E 025°14'0 0.0
2017-Aug-07 09:00N 37°23' E 025°14'0 0.0
2017-Aug-07 08:30N 37°23' E 025°14'3 6.6
2017-Aug-07 08:00N 37°23' E 025°18'2 3.5
2017-Aug-07 07:29N 37°25' E 025°19'0 0.0
2017-Aug-07 06:59N 37°25' E 025°19'0 0.0
2017-Aug-07 06:29N 37°25' E 025°19'0 0.0
2017-Aug-07 05:59N 37°25' E 025°19'0 0.0
2017-Aug-07 05:29N 37°25' E 025°19'0 0.0
2017-Aug-07 04:59N 37°25' E 025°19'0 0.0
2017-Aug-07 04:29N 37°25' E 025°19'0 0.1
2017-Aug-07 03:59N 37°25' E 025°19'0 0.0
2017-Aug-07 03:29N 37°25' E 025°19'0 0.0
2017-Aug-07 02:59N 37°25' E 025°19'0 0.0
2017-Aug-07 02:26N 37°25' E 025°19'0 0.0
2017-Aug-07 01:59N 37°25' E 025°19'0 0.0
2017-Aug-07 01:29N 37°25' E 025°19'0 0.0
2017-Aug-07 00:59N 37°25' E 025°19'0 0.0
2017-Aug-07 00:29N 37°25' E 025°19'0 0.0
2017-Aug-06 23:59N 37°25' E 025°19'0 0.0
2017-Aug-06 23:29N 37°25' E 025°19'0 0.0
2017-Aug-06 22:59N 37°25' E 025°19'0 0.1
2017-Aug-06 22:29N 37°25' E 025°19'0 0.0
2017-Aug-06 21:59N 37°25' E 025°19'0 0.0
2017-Aug-06 21:29N 37°25' E 025°19'0 0.0
2017-Aug-06 20:59N 37°25' E 025°19'0 0.0
2017-Aug-06 20:29N 37°25' E 025°19'0 0.0
2017-Aug-06 19:59N 37°25' E 025°19'0 0.1
2017-Aug-06 19:31N 37°25' E 025°19'4 8.1
2017-Aug-06 19:01N 37°22' E 025°16'612.4
2017-Aug-06 18:30N 37°22' E 025°08'612.2
2017-Aug-06 18:00N 37°21' E 025°00'612.2
2017-Aug-06 17:30N 37°21' E 024°53'612.5
2017-Aug-06 17:00N 37°24' E 024°46'4811.3
2017-Aug-06 12:49N 37°41' E 023°50'412.3
2017-Aug-06 12:30N 37°44' E 023°46'612.7
2017-Aug-06 12:00N 37°49' E 023°42'612.8
2017-Aug-06 11:30N 37°55' E 023°40'1 1.7
2017-Aug-06 10:59N 37°56' E 023°39'0 0.0
2017-Aug-06 10:29N 37°56' E 023°39'0 0.0
2017-Aug-06 09:56N 37°56' E 023°39'0 0.0
2017-Aug-06 09:29N 37°56' E 023°39'0 0.0
2017-Aug-06 08:59N 37°56' E 023°39'0 0.0
2017-Aug-06 08:29N 37°56' E 023°39'0 0.0
2017-Aug-06 07:59N 37°56' E 023°39'0 0.0
2017-Aug-06 07:29N 37°56' E 023°39'0 0.0
2017-Aug-06 06:59N 37°56' E 023°39'0 0.0
2017-Aug-06 06:29N 37°56' E 023°39'0 0.0
2017-Aug-06 05:59N 37°56' E 023°39'0 0.0
2017-Aug-06 05:29N 37°56' E 023°39'0 0.0
2017-Aug-06 04:56N 37°56' E 023°39'0 0.0
2017-Aug-06 04:29N 37°56' E 023°39'0 0.0
2017-Aug-06 03:59N 37°56' E 023°39'0 0.0
2017-Aug-06 03:29N 37°56' E 023°39'0 0.0
2017-Aug-06 02:59N 37°56' E 023°39'0 0.0
2017-Aug-06 02:29N 37°56' E 023°39'0 0.0
2017-Aug-06 01:59N 37°56' E 023°39'0 0.0
2017-Aug-06 01:29N 37°56' E 023°39'0 0.0
2017-Aug-06 00:59N 37°56' E 023°39'0 0.0
2017-Aug-06 00:29N 37°56' E 023°39'0 0.0
2017-Aug-05 23:59N 37°56' E 023°39'0 0.0
2017-Aug-05 23:29N 37°56' E 023°39'0 0.0
2017-Aug-05 22:59N 37°56' E 023°39'0 0.0
2017-Aug-05 22:29N 37°56' E 023°39'0 0.0
2017-Aug-05 21:59N 37°56' E 023°39'0 0.0
2017-Aug-05 21:29N 37°56' E 023°39'0 0.0
2017-Aug-05 20:59N 37°56' E 023°39'0 0.0
2017-Aug-05 20:29N 37°56' E 023°39'0 0.0
2017-Aug-05 19:59N 37°56' E 023°39'0 0.0
2017-Aug-05 19:29N 37°56' E 023°39'0 0.0
2017-Aug-05 19:00N 37°56' E 023°39'1 1.5
2017-Aug-05 18:30N 37°55' E 023°40'611.8
2017-Aug-05 18:00N 37°50' E 023°42'4 8.1
2017-Aug-05 17:30N 37°48' E 023°47'0 0.1
2017-Aug-05 17:00N 37°48' E 023°47'0 0.0
2017-Aug-05 16:30N 37°48' E 023°47'0 0.0
2017-Aug-05 16:00N 37°48' E 023°47'0 0.0
2017-Aug-05 15:30N 37°48' E 023°47'0 0.1
2017-Aug-05 14:59N 37°48' E 023°47'0 0.1
2017-Aug-05 14:30N 37°48' E 023°47'0 0.1
2017-Aug-05 14:00N 37°48' E 023°47'0 0.1
2017-Aug-05 13:30N 37°48' E 023°47'0 0.0
2017-Aug-05 13:00N 37°48' E 023°47'0 0.0
2017-Aug-05 12:30N 37°48' E 023°47'0 0.1
2017-Aug-05 12:00N 37°48' E 023°47'0 0.1
2017-Aug-05 11:30N 37°48' E 023°47'3 6.5
2017-Aug-05 11:00N 37°49' E 023°43'611.8
2017-Aug-05 10:30N 37°54' E 023°40'2 3.1
2017-Aug-05 09:58N 37°56' E 023°39'0 0.0
2017-Aug-05 09:28N 37°56' E 023°39'0 0.0
2017-Aug-05 08:58N 37°56' E 023°39'0 0.0
2017-Aug-05 08:28N 37°56' E 023°39'0 0.0
2017-Aug-05 07:58N 37°56' E 023°39'0 0.0
2017-Aug-05 07:28N 37°56' E 023°39'0 0.0
2017-Aug-05 06:58N 37°56' E 023°39'0 0.0
2017-Aug-05 06:28N 37°56' E 023°39'0 0.0
2017-Aug-05 05:55N 37°56' E 023°39'0 0.0
2017-Aug-05 05:28N 37°56' E 023°39'0 0.0
2017-Aug-05 04:58N 37°56' E 023°39'0 0.0
2017-Aug-05 04:28N 37°56' E 023°39'0 0.0
2017-Aug-05 03:58N 37°56' E 023°39'0 0.0
2017-Aug-05 03:28N 37°56' E 023°39'0 0.0
2017-Aug-05 02:58N 37°56' E 023°39'0 0.0
2017-Aug-05 02:28N 37°56' E 023°39'0 0.0
2017-Aug-05 01:58N 37°56' E 023°39'0 0.0
2017-Aug-05 01:28N 37°56' E 023°39'0 0.0
2017-Aug-05 00:58N 37°56' E 023°39'0 0.0
2017-Aug-05 00:28N 37°56' E 023°39'0 0.0
2017-Aug-04 23:58N 37°56' E 023°39'0 0.0
2017-Aug-04 23:28N 37°56' E 023°39'0 0.0
2017-Aug-04 22:58N 37°56' E 023°39'0 0.0
2017-Aug-04 22:28N 37°56' E 023°39'0 0.0
2017-Aug-04 21:58N 37°56' E 023°39'0 0.0
2017-Aug-04 21:28N 37°56' E 023°39'0 0.0
2017-Aug-04 20:58N 37°56' E 023°39'0 0.0
2017-Aug-04 20:28N 37°56' E 023°39'0 0.0
2017-Aug-04 19:58N 37°56' E 023°39'0 0.0
2017-Aug-04 19:28N 37°56' E 023°39'0 0.0
2017-Aug-04 18:58N 37°56' E 023°39'0 0.0
2017-Aug-04 18:28N 37°56' E 023°39'0 0.0
2017-Aug-04 17:58N 37°56' E 023°39'0 0.0
2017-Aug-04 17:28N 37°56' E 023°39'0 0.0
2017-Aug-04 16:58N 37°56' E 023°39'0 0.0
2017-Aug-04 16:28N 37°56' E 023°39'0 0.0
2017-Aug-04 15:58N 37°56' E 023°39'0 0.0
2017-Aug-04 15:28N 37°56' E 023°39'0 0.0
2017-Aug-04 14:58N 37°56' E 023°39'0 0.0
2017-Aug-04 13:58N 37°56' E 023°39'0 0.0
2017-Aug-04 13:28N 37°56' E 023°39'0 0.0
2017-Aug-04 12:58N 37°56' E 023°39'0 0.0
2017-Aug-04 12:28N 37°56' E 023°39'0 0.0
2017-Aug-04 11:58N 37°56' E 023°39'2 4.3
2017-Aug-04 11:30N 37°54' E 023°40'612.7
2017-Aug-04 11:00N 37°48' E 023°43'612.6
2017-Aug-04 10:30N 37°43' E 023°47'  

Dump ship's entire track history